Everetts, North Carolina
Current Conditions -  °F | °C
As of 12:50 AM on Wednesday 22 Oct 2014 (Local Time) from KPGV Reporting Station
Scattered Clouds Scattered Clouds  
Wind Chill: 15°   Ceiling: Unl
Heat Index: 15°   Visibility: 10mi
Dew Point: 10°   Wind: 5mph
Humidity: 72%   Direction: 330°NNW
Pressure: 29.9"   Gusts: NA
Location:  35.83°N, 77.17°W
Report Text: KPGV 220450Z AUTO 33004KT 10SM SCT055 SCT070 SCT090 15/10 A2990 RMK AO2
Loading
Personal Weather Stations






























Interactive Weather Map
Tropical Storm Tracking
New forecast layout! Learn more

10-Day Weather Forecast

Advertisements
Track Severe Weather on mobile